createdAt,value
2023-11-23T00:01:56.549Z,101842.41
2023-11-23T00:03:58.389Z,101835.63
2023-11-23T00:06:00.371Z,101840.38
2023-11-23T00:08:03.635Z,101834.84
2023-11-23T00:10:06.759Z,101832.81
2023-11-23T00:12:08.892Z,101834.22
2023-11-23T00:14:10.605Z,101834.84
2023-11-23T00:16:12.480Z,101838.53
2023-11-23T00:18:14.312Z,101835.88
2023-11-23T00:20:16.090Z,101829.50
2023-11-23T00:22:17.747Z,101840.19
2023-11-23T00:24:20.830Z,101848.41
2023-11-23T00:26:22.629Z,101833.63
2023-11-23T00:28:24.380Z,101835.66
2023-11-23T00:30:26.190Z,101831.56
2023-11-23T00:32:28.008Z,101820.88
2023-11-23T00:34:29.729Z,101823.56
2023-11-23T00:36:31.612Z,101815.31
2023-11-23T00:38:33.548Z,101823.56
2023-11-23T00:40:36.866Z,101824.41
2023-11-23T00:42:38.973Z,101824.81
2023-11-23T00:44:40.754Z,101800.75
2023-11-23T00:46:42.547Z,101796.22
2023-11-23T00:48:44.542Z,101790.06
2023-11-23T00:50:46.285Z,101796.25
2023-11-23T00:52:48.065Z,101787.19
2023-11-23T00:54:49.850Z,101790.72
2023-11-23T00:56:53.125Z,101787.19
2023-11-23T00:58:54.870Z,101786.00
2023-11-23T01:00:56.755Z,101791.34
2023-11-23T01:02:58.619Z,101784.13
2023-11-23T01:05:00.412Z,101790.50
2023-11-23T01:07:02.279Z,101786.00
2023-11-23T01:09:04.148Z,101781.69
2023-11-23T01:11:06.305Z,101774.06
2023-11-23T01:13:09.470Z,101775.09
2023-11-23T01:15:11.786Z,101772.25
2023-11-23T01:17:15.117Z,101785.00
2023-11-23T01:19:17.026Z,101781.47
2023-11-23T01:21:18.710Z,101786.81
2023-11-23T01:23:20.582Z,101781.09
2023-11-23T01:25:22.471Z,101785.81
2023-11-23T01:27:24.161Z,101771.25
2023-11-23T01:29:27.180Z,101776.38
2023-11-23T01:31:28.864Z,101766.94
2023-11-23T01:33:30.622Z,101768.38
2023-11-23T01:35:32.325Z,101768.16
2023-11-23T01:37:34.019Z,101763.84
2023-11-23T01:39:35.719Z,101764.66
2023-11-23T01:41:37.489Z,101767.56
2023-11-23T01:43:39.233Z,101760.75
2023-11-23T01:45:42.274Z,101765.06
2023-11-23T01:47:45.396Z,101761.59
2023-11-23T01:49:47.530Z,101758.09
2023-11-23T01:51:49.276Z,101765.28
2023-11-23T01:53:52.100Z,101765.94
2023-11-23T01:55:54.233Z,101769.81
2023-11-23T01:57:59.037Z,101775.16
2023-11-23T02:00:01.734Z,101764.69
2023-11-23T02:02:06.585Z,101768.41
2023-11-23T02:04:09.226Z,101776.19
2023-11-23T02:06:10.920Z,101776.81
2023-11-23T02:08:12.692Z,101782.56
2023-11-23T02:10:14.431Z,101783.59
2023-11-23T02:12:18.404Z,101784.22
2023-11-23T02:14:20.109Z,101791.41
2023-11-23T02:16:21.894Z,101786.88
2023-11-23T02:18:25.070Z,101779.69
2023-11-23T02:20:26.707Z,101773.72
2023-11-23T02:22:28.360Z,101763.88
2023-11-23T02:24:31.428Z,101753.19
2023-11-23T02:26:33.238Z,101747.63
2023-11-23T02:28:35.001Z,101751.31
2023-11-23T02:30:36.719Z,101747.06
2023-11-23T02:32:38.550Z,101749.28
2023-11-23T02:34:40.229Z,101746.22
2023-11-23T02:36:41.909Z,101746.03
2023-11-23T02:38:43.704Z,101742.31
2023-11-23T02:40:46.754Z,101743.75
2023-11-23T02:42:48.528Z,101751.78
2023-11-23T02:44:50.322Z,101745.19
2023-11-23T02:46:52.352Z,101744.16
2023-11-23T02:48:54.043Z,101746.63
2023-11-23T02:50:55.827Z,101755.69
2023-11-23T02:52:57.534Z,101752.41
2023-11-23T02:54:59.263Z,101753.81
2023-11-23T02:57:02.380Z,101745.00
2023-11-23T02:59:04.379Z,101734.31
2023-11-23T03:01:06.353Z,101738.44
2023-11-23T03:03:08.117Z,101739.03
2023-11-23T03:05:10.061Z,101737.19
2023-11-23T03:07:14.388Z,101742.53
2023-11-23T03:09:16.393Z,101740.88
2023-11-23T03:11:18.768Z,101738.44
2023-11-23T03:13:22.064Z,101726.72
2023-11-23T03:15:23.941Z,101735.53
2023-11-23T03:17:27.462Z,101731.84
2023-11-23T03:19:29.184Z,101729.78
2023-11-23T03:21:31.077Z,101717.69
2023-11-23T03:23:32.813Z,101716.25
2023-11-23T03:25:34.499Z,101720.56
2023-11-23T03:27:36.225Z,101715.81
2023-11-23T03:29:39.461Z,101710.09
2023-11-23T03:31:41.227Z,101710.50
2023-11-23T03:33:43.186Z,101715.84
2023-11-23T03:35:44.895Z,101712.56
2023-11-23T03:37:46.549Z,101715.63
2023-11-23T03:39:48.240Z,101726.94
2023-11-23T03:41:49.951Z,101725.06
2023-11-23T03:43:51.915Z,101730.81
2023-11-23T03:45:55.238Z,101737.19
2023-11-23T03:47:57.016Z,101734.53
2023-11-23T03:49:58.654Z,101730.22
2023-11-23T03:52:00.452Z,101737.38
2023-11-23T03:54:02.238Z,101727.75
2023-11-23T03:56:04.409Z,101733.06
2023-11-23T03:58:06.275Z,101735.97
2023-11-23T04:00:09.045Z,101735.75
2023-11-23T04:02:12.558Z,101727.75
2023-11-23T04:04:15.008Z,101729.38
2023-11-23T04:06:16.913Z,101725.28
2023-11-23T04:08:18.532Z,101720.16
2023-11-23T04:10:20.229Z,101718.53
2023-11-23T04:12:21.932Z,101719.31
2023-11-23T04:14:23.553Z,101714.00
2023-11-23T04:16:25.245Z,101715.63
2023-11-23T04:18:28.259Z,101699.22
2023-11-23T04:20:33.221Z,101705.16
2023-11-23T04:22:35.525Z,101699.22
2023-11-23T04:24:38.923Z,101697.56
2023-11-23T04:26:41.717Z,101701.47
2023-11-23T04:28:43.484Z,101697.78
2023-11-23T04:30:45.354Z,101692.44
2023-11-23T04:32:47.286Z,101699.00
2023-11-23T04:34:50.525Z,101696.94
2023-11-23T04:36:52.251Z,101695.72
2023-11-23T04:38:54.013Z,101694.06
2023-11-23T04:40:55.790Z,101694.91
2023-11-23T04:42:57.576Z,101698.59
2023-11-23T04:44:59.277Z,101691.81
2023-11-23T04:47:00.983Z,101687.50
2023-11-23T04:49:02.657Z,101680.13
2023-11-23T04:51:07.534Z,101682.19
2023-11-23T04:53:09.330Z,101678.47
2023-11-23T04:55:11.026Z,101671.91
2023-11-23T04:57:12.776Z,101672.13
2023-11-23T04:59:14.558Z,101675.19
2023-11-23T05:01:16.943Z,101664.53
2023-11-23T05:03:18.749Z,101665.75
2023-11-23T05:05:20.488Z,101660.19
2023-11-23T05:07:23.610Z,101653.03
2023-11-23T05:09:25.458Z,101655.50
2023-11-23T05:11:27.208Z,101658.34
2023-11-23T05:13:28.884Z,101662.66
2023-11-23T05:15:30.649Z,101656.28
2023-11-23T05:17:33.147Z,101656.09
2023-11-23T05:19:41.986Z,101653.44
2023-11-23T05:21:44.933Z,101661.84
2023-11-23T05:23:48.107Z,101663.09
2023-11-23T05:25:49.778Z,101671.50
2023-11-23T05:27:51.493Z,101662.25
2023-11-23T05:29:53.302Z,101663.69
2023-11-23T05:31:55.011Z,101666.34
2023-11-23T05:33:56.769Z,101662.06
2023-11-23T05:35:58.583Z,101653.03
2023-11-23T05:38:00.281Z,101656.09
2023-11-23T05:40:03.575Z,101664.53
2023-11-23T05:42:05.729Z,101659.19
2023-11-23T05:44:07.728Z,101673.16
2023-11-23T05:46:11.777Z,101665.53
2023-11-23T05:48:14.975Z,101664.13
2023-11-23T05:50:17.086Z,101668.44
2023-11-23T05:52:18.726Z,101663.91
2023-11-23T05:54:20.561Z,101662.88
2023-11-23T05:56:23.618Z,101662.66
2023-11-23T05:58:25.359Z,101662.66
2023-11-23T06:00:27.122Z,101662.06
2023-11-23T06:02:28.853Z,101662.06
2023-11-23T06:04:30.719Z,101659.81
2023-11-23T06:06:32.604Z,101662.88
2023-11-23T06:08:34.431Z,101663.50
2023-11-23T06:10:36.260Z,101665.94
2023-11-23T06:12:39.644Z,101676.22
2023-11-23T06:14:41.429Z,101677.25
2023-11-23T06:16:43.063Z,101683.59
2023-11-23T06:18:45.476Z,101685.25
2023-11-23T06:20:47.283Z,101672.94
2023-11-23T06:22:49.029Z,101673.13
2023-11-23T06:24:50.796Z,101675.59
2023-11-23T06:26:52.977Z,101673.94
2023-11-23T06:28:56.175Z,101676.81
2023-11-23T06:30:57.946Z,101668.22
2023-11-23T06:32:59.808Z,101668.63
2023-11-23T06:35:01.811Z,101670.88
2023-11-23T06:37:04.011Z,101661.41
2023-11-23T06:39:05.899Z,101647.66
2023-11-23T06:41:17.025Z,101650.16
2023-11-23T06:43:19.122Z,101653.00
2023-11-23T06:45:22.450Z,101656.06
2023-11-23T06:47:24.139Z,101653.41
2023-11-23T06:49:25.864Z,101647.25
2023-11-23T06:51:27.633Z,101642.72
2023-11-23T06:53:29.557Z,101632.09
2023-11-23T06:55:31.327Z,101638.84
2023-11-23T06:57:33.118Z,101652.81
2023-11-23T06:59:34.788Z,101646.44
2023-11-23T07:01:37.941Z,101650.34
2023-11-23T07:03:40.177Z,101650.16
2023-11-23T07:05:42.001Z,101659.19
2023-11-23T07:07:43.788Z,101655.88
2023-11-23T07:09:45.491Z,101666.97
2023-11-23T07:11:47.208Z,101675.19
2023-11-23T07:13:49.089Z,101673.72
2023-11-23T07:15:51.068Z,101679.50
2023-11-23T07:17:54.395Z,101673.34
2023-11-23T07:19:56.272Z,101666.97
2023-11-23T07:21:57.990Z,101670.47
2023-11-23T07:23:59.725Z,101669.25
2023-11-23T07:26:01.539Z,101675.19
2023-11-23T07:28:03.656Z,101670.66
2023-11-23T07:30:07.047Z,101670.44
2023-11-23T07:32:09.161Z,101677.25
2023-11-23T07:34:12.250Z,101678.66
2023-11-23T07:36:14.010Z,101700.03
2023-11-23T07:38:16.563Z,101695.50
2023-11-23T07:40:20.013Z,101702.06
2023-11-23T07:42:21.850Z,101693.66
2023-11-23T07:44:23.571Z,101691.59
2023-11-23T07:46:25.760Z,101685.66
2023-11-23T07:48:27.783Z,101681.13
2023-11-23T07:50:31.012Z,101685.44
2023-11-23T07:52:32.851Z,101684.63
2023-11-23T07:54:34.698Z,101676.22
2023-11-23T07:56:36.590Z,101670.44
2023-11-23T07:58:38.614Z,101661.00
2023-11-23T08:00:40.418Z,101658.31
2023-11-23T08:02:42.381Z,101665.31
2023-11-23T08:04:44.030Z,101667.75
2023-11-23T08:06:48.376Z,101649.06
2023-11-23T08:08:50.338Z,101659.75
2023-11-23T08:10:52.196Z,101660.34
2023-11-23T08:12:54.097Z,101652.56
2023-11-23T08:14:56.018Z,101662.00
2023-11-23T08:16:58.000Z,101657.84
2023-11-23T08:19:00.342Z,101651.91
2023-11-23T08:21:02.289Z,101650.25
2023-11-23T08:23:05.625Z,101652.94
2023-11-23T08:25:08.225Z,101649.25
2023-11-23T08:27:09.969Z,101648.78
2023-11-23T08:29:11.807Z,101655.38
2023-11-23T08:31:13.878Z,101646.75
2023-11-23T08:33:15.993Z,101652.28
2023-11-23T08:35:17.871Z,101652.06
2023-11-23T08:37:19.863Z,101650.41
2023-11-23T08:39:23.347Z,101652.88
2023-11-23T08:41:25.620Z,101641.00
2023-11-23T08:43:27.675Z,101639.13
2023-11-23T08:45:29.592Z,101624.13
2023-11-23T08:47:31.812Z,101627.00
2023-11-23T08:49:33.609Z,101627.63
2023-11-23T08:51:35.797Z,101622.91
2023-11-23T08:53:37.774Z,101616.31
2023-11-23T08:55:40.920Z,101610.75
2023-11-23T08:57:42.946Z,101620.41
2023-11-23T08:59:44.904Z,101625.97
2023-11-23T09:01:50.957Z,101625.13
2023-11-23T09:03:57.060Z,101613.41
2023-11-23T09:05:59.200Z,101622.03
2023-11-23T09:08:01.012Z,101616.44
2023-11-23T09:10:02.934Z,101621.97
2023-11-23T09:12:07.243Z,101615.59
2023-11-23T09:14:09.102Z,101617.66
2023-11-23T09:16:11.212Z,101619.31
2023-11-23T09:18:13.243Z,101610.25
2023-11-23T09:20:15.129Z,101619.47
2023-11-23T09:22:17.328Z,101614.09
2023-11-23T09:24:19.337Z,101613.91
2023-11-23T09:26:21.494Z,101613.69
2023-11-23T09:28:25.348Z,101618.38
2023-11-23T09:30:27.181Z,101618.56
2023-11-23T09:32:29.010Z,101612.38
2023-11-23T09:34:30.951Z,101612.19
2023-11-23T09:36:32.849Z,101609.91
2023-11-23T09:38:34.642Z,101616.44
2023-11-23T09:40:36.542Z,101609.63
2023-11-23T09:42:38.708Z,101610.63
2023-11-23T09:44:43.902Z,101606.53
2023-11-23T09:46:47.697Z,101588.38
2023-11-23T09:48:50.828Z,101599.25
2023-11-23T09:50:52.940Z,101609.53
2023-11-23T09:52:54.973Z,101610.81
2023-11-23T09:54:58.367Z,101611.59
2023-11-23T09:57:02.155Z,101606.03
2023-11-23T09:59:04.472Z,101600.06
2023-11-23T10:01:08.423Z,101597.16
2023-11-23T10:03:13.722Z,101588.47
2023-11-23T10:05:17.582Z,101586.53
2023-11-23T10:07:20.239Z,101583.88
2023-11-23T10:09:22.202Z,101579.97
2023-11-23T10:11:27.353Z,101579.72
2023-11-23T10:13:29.228Z,101577.28
2023-11-23T10:15:31.185Z,101578.31
2023-11-23T10:17:34.712Z,101584.69
2023-11-23T10:19:36.658Z,101578.25
2023-11-23T10:21:41.110Z,101572.06
2023-11-23T10:23:43.388Z,101564.00
2023-11-23T10:25:46.615Z,101562.09
2023-11-23T10:27:48.732Z,101552.19
2023-11-23T10:29:51.037Z,101551.53
2023-11-23T10:31:53.347Z,101546.59
2023-11-23T10:33:57.002Z,101542.88
2023-11-23T10:36:03.335Z,101535.47
2023-11-23T10:38:06.973Z,101542.28
2023-11-23T10:40:13.186Z,101522.75
2023-11-23T10:42:17.638Z,101527.72
2023-11-23T10:44:20.320Z,101519.47
2023-11-23T10:46:23.648Z,101513.31
2023-11-23T10:48:25.963Z,101506.31
2023-11-23T10:50:29.758Z,101511.81
2023-11-23T10:52:34.170Z,101507.66
2023-11-23T10:54:36.362Z,101496.94
2023-11-23T10:56:43.164Z,101491.97
2023-11-23T10:58:50.173Z,101483.34
2023-11-23T11:00:53.321Z,101470.34
2023-11-23T11:03:01.453Z,101479.09
2023-11-23T11:05:03.896Z,101478.75
2023-11-23T11:07:09.604Z,101471.59
2023-11-23T11:09:16.038Z,101469.44
2023-11-23T11:11:20.673Z,101460.44
2023-11-23T11:13:25.739Z,101457.31
2023-11-23T11:15:28.927Z,101452.56
2023-11-23T11:17:37.797Z,101449.41
2023-11-23T11:19:43.384Z,101445.50
2023-11-23T11:21:46.705Z,101459.84
2023-11-23T11:23:51.214Z,101453.81
2023-11-23T11:25:53.254Z,101456.50
2023-11-23T11:27:55.253Z,101452.97
2023-11-23T11:29:59.633Z,101453.81
2023-11-23T11:32:04.118Z,101444.41
2023-11-23T11:34:17.560Z,101437.19
2023-11-23T11:36:19.900Z,101434.88
2023-11-23T11:38:21.865Z,101439.06
2023-11-23T11:40:25.985Z,101434.28
2023-11-23T11:42:27.886Z,101428.16
2023-11-23T11:44:30.131Z,101427.13
2023-11-23T11:46:32.584Z,101435.72
2023-11-23T11:48:34.431Z,101437.59
2023-11-23T11:50:36.319Z,101432.34
2023-11-23T11:52:38.404Z,101422.38
2023-11-23T11:54:40.689Z,101430.88
2023-11-23T11:56:44.165Z,101434.81
2023-11-23T11:58:46.659Z,101427.50
2023-11-23T12:00:48.563Z,101429.97
2023-11-23T12:02:50.931Z,101421.94
2023-11-23T12:04:58.265Z,101420.38
2023-11-23T12:07:00.158Z,101423.44
2023-11-23T12:09:02.178Z,101419.00
2023-11-23T12:11:05.430Z,101406.66
2023-11-23T12:13:09.225Z,101395.03
2023-11-23T12:15:14.651Z,101402.47
2023-11-23T12:17:16.413Z,101387.53
2023-11-23T12:19:19.348Z,101387.41
2023-11-23T12:21:21.381Z,101390.91
2023-11-23T12:23:23.315Z,101384.28
2023-11-23T12:25:25.314Z,101377.44
2023-11-23T12:27:27.222Z,101371.69
2023-11-23T12:29:30.641Z,101365.88
2023-11-23T12:31:32.694Z,101372.63
2023-11-23T12:33:34.874Z,101367.06
2023-11-23T12:35:36.602Z,101380.44
2023-11-23T12:37:38.623Z,101373.81
2023-11-23T12:39:40.482Z,101375.59
2023-11-23T12:41:46.730Z,101380.47
2023-11-23T12:43:54.516Z,101364.03
2023-11-23T12:45:58.080Z,101356.81
2023-11-23T12:48:00.835Z,101360.91
2023-11-23T12:50:03.089Z,101349.81
2023-11-23T12:52:05.792Z,101350.41
2023-11-23T12:54:08.089Z,101340.28
2023-11-23T12:56:09.863Z,101333.88
2023-11-23T12:58:12.074Z,101319.63
2023-11-23T13:00:14.617Z,101315.56
2023-11-23T13:02:18.058Z,101323.59
2023-11-23T13:04:19.844Z,101324.19
2023-11-23T13:06:21.922Z,101321.50
2023-11-23T13:08:24.154Z,101320.81
2023-11-23T13:10:26.792Z,101316.03
2023-11-23T13:12:28.940Z,101309.63
2023-11-23T13:14:31.048Z,101295.28
2023-11-23T13:16:32.971Z,101286.88
2023-11-23T13:18:51.101Z,101277.09
2023-11-23T13:20:58.304Z,101280.69
2023-11-23T13:23:00.221Z,101290.63
2023-11-23T13:25:02.180Z,101297.16
2023-11-23T13:27:04.816Z,101297.84
2023-11-23T13:29:07.168Z,101292.13
2023-11-23T13:31:09.252Z,101295.41
2023-11-23T13:33:11.178Z,101290.16
2023-11-23T13:35:14.754Z,101275.78
2023-11-23T13:37:16.754Z,101266.44
2023-11-23T13:39:18.504Z,101260.88
2023-11-23T13:41:20.308Z,101262.16
2023-11-23T13:43:22.347Z,101269.38
2023-11-23T13:45:24.369Z,101262.97
2023-11-23T13:47:26.264Z,101245.84
2023-11-23T13:49:28.078Z,101239.19
2023-11-23T13:51:32.347Z,101238.25
2023-11-23T13:53:36.006Z,101237.13
2023-11-23T13:55:37.885Z,101229.06
2023-11-23T13:57:40.181Z,101230.69
2023-11-23T13:59:42.089Z,101232.44
2023-11-23T14:01:44.080Z,101235.44
2023-11-23T14:03:46.019Z,101228.78
2023-11-23T14:05:48.208Z,101225.91
2023-11-23T14:07:51.541Z,101224.97
2023-11-23T14:09:53.425Z,101205.75
2023-11-23T14:11:55.666Z,101218.81
2023-11-23T14:13:57.625Z,101227.78
2023-11-23T14:15:59.695Z,101224.97
2023-11-23T14:18:02.168Z,101219.75
2023-11-23T14:20:04.698Z,101207.63
2023-11-23T14:22:06.430Z,101209.72
2023-11-23T14:24:10.455Z,101209.03
2023-11-23T14:26:12.417Z,101216.25
2023-11-23T14:28:14.380Z,101218.09
2023-11-23T14:30:16.669Z,101224.31
2023-11-23T14:32:18.595Z,101219.63
2023-11-23T14:34:20.806Z,101226.38
2023-11-23T14:36:22.778Z,101218.44
2023-11-23T14:38:24.695Z,101213.19
2023-11-23T14:40:27.923Z,101208.75
2023-11-23T14:42:36.162Z,101199.06
2023-11-23T14:44:43.405Z,101192.16
2023-11-23T14:46:45.428Z,101186.94
2023-11-23T14:48:47.236Z,101196.97
2023-11-23T14:50:49.132Z,101188.22
2023-11-23T14:52:50.966Z,101186.84
2023-11-23T14:54:53.212Z,101191.38
2023-11-23T14:56:56.467Z,101195.22
2023-11-23T14:58:58.629Z,101193.00
2023-11-23T15:01:00.626Z,101198.38
2023-11-23T15:03:02.725Z,101195.69
2023-11-23T15:05:05.829Z,101196.28
2023-11-23T15:07:07.755Z,101198.16
2023-11-23T15:09:09.697Z,101198.94
2023-11-23T15:11:13.466Z,101200.34
2023-11-23T15:13:23.155Z,101185.06
2023-11-23T15:15:34.299Z,101178.19
2023-11-23T15:17:38.135Z,101167.59
2023-11-23T15:19:39.941Z,101164.91
2023-11-23T15:21:42.089Z,101169.00
2023-11-23T15:23:43.923Z,101151.59
2023-11-23T15:25:46.067Z,101130.72
2023-11-23T15:27:47.986Z,101136.44
2023-11-23T15:29:51.412Z,101146.56
2023-11-23T15:31:53.361Z,101143.69
2023-11-23T15:33:55.216Z,101142.38
2023-11-23T15:35:57.973Z,101123.63
2023-11-23T15:38:00.131Z,101110.69
2023-11-23T15:40:02.472Z,101102.75
2023-11-23T15:42:05.349Z,101110.00
2023-11-23T15:44:07.472Z,101126.88
2023-11-23T15:46:10.967Z,101125.41
2023-11-23T15:48:13.004Z,101113.16
2023-11-23T15:50:15.142Z,101123.06
2023-11-23T15:52:16.982Z,101128.19
2023-11-23T15:54:18.893Z,101109.09
2023-11-23T15:56:23.325Z,101105.34
2023-11-23T15:58:26.457Z,101108.75
2023-11-23T16:00:28.236Z,101106.41
2023-11-23T16:02:37.602Z,101103.13
2023-11-23T16:04:39.569Z,101098.94
2023-11-23T16:06:41.579Z,101098.50
2023-11-23T16:08:43.583Z,101095.56
2023-11-23T16:10:45.441Z,101091.13
2023-11-23T16:12:47.471Z,101096.88
2023-11-23T16:14:49.235Z,101091.75
2023-11-23T16:16:51.120Z,101081.97
2023-11-23T16:18:54.249Z,101079.88
2023-11-23T16:20:58.666Z,101080.22
2023-11-23T16:23:00.549Z,101088.50
2023-11-23T16:25:02.300Z,101092.22
2023-11-23T16:27:04.579Z,101099.22
2023-11-23T16:29:06.292Z,101093.88
2023-11-23T16:31:08.565Z,101095.09
2023-11-23T16:33:10.609Z,101092.09
2023-11-23T16:35:13.897Z,101092.34
2023-11-23T16:37:15.637Z,101095.56
2023-11-23T16:39:17.446Z,101087.06
2023-11-23T16:41:19.653Z,101089.47
2023-11-23T16:43:21.396Z,101087.38
2023-11-23T16:45:23.643Z,101093.91
2023-11-23T16:47:25.685Z,101088.53
2023-11-23T16:49:27.786Z,101069.75
2023-11-23T16:51:31.044Z,101069.66
2023-11-23T16:53:33.096Z,101062.59
2023-11-23T16:55:36.331Z,101076.97
2023-11-23T16:57:38.687Z,101084.34
2023-11-23T16:59:40.437Z,101085.94
2023-11-23T17:01:42.232Z,101093.19
2023-11-23T17:03:44.087Z,101093.31
2023-11-23T17:05:45.907Z,101086.31
2023-11-23T17:07:49.016Z,101079.13
2023-11-23T17:09:51.182Z,101078.75
2023-11-23T17:11:53.269Z,101074.22
2023-11-23T17:13:55.210Z,101074.81
2023-11-23T17:15:57.175Z,101074.13
2023-11-23T17:17:58.951Z,101070.38
2023-11-23T17:20:00.920Z,101069.13
2023-11-23T17:22:02.981Z,101061.41
2023-11-23T17:24:07.392Z,101056.63
2023-11-23T17:26:09.349Z,101056.50
2023-11-23T17:28:11.140Z,101057.66
2023-11-23T17:30:13.260Z,101047.00
2023-11-23T17:32:15.254Z,101045.63
2023-11-23T17:34:17.072Z,101045.97
2023-11-23T17:36:18.735Z,101046.31
2023-11-23T17:38:20.429Z,101050.94
2023-11-23T17:40:23.688Z,101041.38
2023-11-23T17:42:25.530Z,101038.22
2023-11-23T17:44:27.239Z,101027.38
2023-11-23T17:46:29.152Z,101016.66
2023-11-23T17:48:30.919Z,101012.34
2023-11-23T17:50:32.618Z,101019.66
2023-11-23T17:52:34.455Z,101013.50
2023-11-23T17:54:36.165Z,101026.66
2023-11-23T17:56:39.306Z,101015.19
2023-11-23T17:58:41.087Z,101020.97
2023-11-23T18:00:42.903Z,101020.47
2023-11-23T18:02:45.096Z,101004.28
2023-11-23T18:04:47.549Z,101010.56
2023-11-23T18:06:49.261Z,101011.38
2023-11-23T18:08:51.179Z,101011.38
2023-11-23T18:10:53.013Z,101000.41
2023-11-23T18:12:56.394Z,101001.78
2023-11-23T18:14:58.404Z,101014.63
2023-11-23T18:17:00.320Z,100998.78
2023-11-23T18:19:02.208Z,100983.72
2023-11-23T18:21:04.171Z,100975.47
2023-11-23T18:23:05.890Z,100972.19
2023-11-23T18:25:08.338Z,100961.38
2023-11-23T18:27:10.096Z,100944.25
2023-11-23T18:29:13.562Z,100949.03
2023-11-23T18:31:15.455Z,100938.81
2023-11-23T18:33:17.368Z,100930.50
2023-11-23T18:35:19.446Z,100921.97
2023-11-23T18:37:21.331Z,100916.34
2023-11-23T18:39:23.176Z,100899.22
2023-11-23T18:41:25.489Z,100918.56
2023-11-23T18:43:27.484Z,100917.25
2023-11-23T18:45:30.593Z,100910.34
2023-11-23T18:47:33.301Z,100900.97
2023-11-23T18:49:35.151Z,100895.44
2023-11-23T18:51:37.084Z,100902.75
2023-11-23T18:53:39.104Z,100908.69
2023-11-23T18:55:40.805Z,100893.16
2023-11-23T18:57:42.669Z,100889.72
2023-11-23T18:59:45.174Z,100887.59
2023-11-23T19:01:48.544Z,100890.50
2023-11-23T19:03:51.551Z,100887.81
2023-11-23T19:05:53.568Z,100887.03
2023-11-23T19:07:55.953Z,100876.88
2023-11-23T19:09:58.060Z,100870.75
2023-11-23T19:12:00.618Z,100863.25
2023-11-23T19:14:02.691Z,100854.34
2023-11-23T19:16:05.632Z,100847.66
2023-11-23T19:18:11.000Z,100841.22
2023-11-23T19:20:14.456Z,100844.13
2023-11-23T19:22:16.968Z,100843.66
2023-11-23T19:24:19.694Z,100853.59
2023-11-23T19:26:22.530Z,100841.25
2023-11-23T19:28:25.094Z,100846.41
2023-11-23T19:30:28.052Z,100846.41
2023-11-23T19:32:30.590Z,100843.47
2023-11-23T19:34:35.459Z,100852.75
2023-11-23T19:36:40.313Z,100843.16
2023-11-23T19:38:45.131Z,100834.34
2023-11-23T19:40:48.252Z,100837.81
2023-11-23T19:42:50.894Z,100839.22
2023-11-23T19:44:53.471Z,100838.66
2023-11-23T19:46:55.812Z,100832.53
2023-11-23T19:48:58.577Z,100822.84
2023-11-23T19:51:03.479Z,100820.16
2023-11-23T19:53:05.909Z,100828.22
2023-11-23T19:55:08.893Z,100823.34
2023-11-23T19:57:10.717Z,100809.44
2023-11-23T19:59:12.797Z,100804.25
2023-11-23T20:01:14.986Z,100810.22
2023-11-23T20:03:19.748Z,100816.72
2023-11-23T20:05:21.854Z,100831.19
2023-11-23T20:07:25.388Z,100825.84
2023-11-23T20:09:27.429Z,100821.31
2023-11-23T20:11:29.565Z,100809.25
2023-11-23T20:13:32.146Z,100800.47
2023-11-23T20:15:34.512Z,100790.28
2023-11-23T20:17:36.857Z,100796.19
2023-11-23T20:19:40.365Z,100791.09
2023-11-23T20:21:42.617Z,100792.16
2023-11-23T20:23:46.351Z,100794.34
2023-11-23T20:25:48.836Z,100786.59
2023-11-23T20:27:51.144Z,100779.88
2023-11-23T20:29:53.164Z,100779.63
2023-11-23T20:31:55.339Z,100767.03
2023-11-23T20:33:57.362Z,100769.22
2023-11-23T20:35:59.512Z,100765.47
2023-11-23T20:38:01.532Z,100769.22
2023-11-23T20:40:06.052Z,100767.59
2023-11-23T20:42:08.688Z,100770.81
2023-11-23T20:44:10.938Z,100768.13
2023-11-23T20:46:13.195Z,100761.19
2023-11-23T20:48:15.246Z,100754.75
2023-11-23T20:50:18.330Z,100753.94
2023-11-23T20:52:21.364Z,100757.69
2023-11-23T20:54:23.341Z,100749.41
2023-11-23T20:56:27.556Z,100736.53
2023-11-23T20:58:30.104Z,100744.56
2023-11-23T21:00:32.428Z,100746.75
2023-11-23T21:02:35.753Z,100733.59
2023-11-23T21:04:38.666Z,100733.59
2023-11-23T21:06:50.604Z,100722.03
2023-11-23T21:08:58.792Z,100712.09
2023-11-23T21:11:01.338Z,100711.81
2023-11-23T21:13:04.786Z,100703.19
2023-11-23T21:15:08.043Z,100700.53
2023-11-23T21:17:10.717Z,100694.91
2023-11-23T21:19:12.988Z,100691.41
2023-11-23T21:21:15.068Z,100694.13
2023-11-23T21:23:16.996Z,100683.94
2023-11-23T21:25:18.946Z,100675.63
2023-11-23T21:27:21.107Z,100673.72
2023-11-23T21:29:24.349Z,100669.41
2023-11-23T21:31:26.465Z,100667.50
2023-11-23T21:33:28.781Z,100661.88
2023-11-23T21:35:30.745Z,100664.03
2023-11-23T21:37:32.702Z,100664.09
2023-11-23T21:39:34.696Z,100653.28
2023-11-23T21:41:36.392Z,100643.91
2023-11-23T21:43:38.270Z,100629.63
2023-11-23T21:45:41.746Z,100627.50
2023-11-23T21:47:43.974Z,100625.88
2023-11-23T21:49:46.089Z,100617.81
2023-11-23T21:51:48.134Z,100616.75
2023-11-23T21:53:50.015Z,100623.75
2023-11-23T21:55:52.013Z,100632.91
2023-11-23T21:57:53.993Z,100629.66
2023-11-23T21:59:55.983Z,100621.31
2023-11-23T22:01:59.361Z,100631.28
2023-11-23T22:04:01.394Z,100628.84
2023-11-23T22:06:03.517Z,100626.44
2023-11-23T22:08:05.742Z,100631.81
2023-11-23T22:10:08.724Z,100618.63
2023-11-23T22:12:10.563Z,100616.75
2023-11-23T22:14:12.401Z,100616.47
2023-11-23T22:16:14.187Z,100616.47
2023-11-23T22:18:17.983Z,100603.84
2023-11-23T22:20:20.924Z,100602.22
2023-11-23T22:22:23.339Z,100604.13
2023-11-23T22:24:26.065Z,100599.28
2023-11-23T22:26:28.511Z,100601.47
2023-11-23T22:28:31.095Z,100594.25
2023-11-23T22:30:33.649Z,100577.56
2023-11-23T22:32:38.098Z,100591.53
2023-11-23T22:34:42.467Z,100573.03
2023-11-23T22:36:45.260Z,100572.66
2023-11-23T22:38:47.949Z,100572.16
2023-11-23T22:40:50.351Z,100572.94
2023-11-23T22:42:52.751Z,100571.81
2023-11-23T22:44:55.053Z,100563.25
2023-11-23T22:46:57.508Z,100555.19
2023-11-23T22:48:59.378Z,100553.59
2023-11-23T22:51:02.818Z,100547.41
2023-11-23T22:53:04.551Z,100546.91
2023-11-23T22:55:07.104Z,100537.22
2023-11-23T22:57:08.828Z,100528.94
2023-11-23T22:59:10.728Z,100529.16
2023-11-23T23:01:12.609Z,100517.63
2023-11-23T23:03:14.578Z,100508.75
2023-11-23T23:05:16.454Z,100496.16
2023-11-23T23:07:19.645Z,100491.00
2023-11-23T23:09:22.498Z,100480.03
2023-11-23T23:11:24.417Z,100473.84
2023-11-23T23:13:26.159Z,100464.97
2023-11-23T23:15:28.058Z,100467.69
2023-11-23T23:17:29.848Z,100460.72
2023-11-23T23:19:31.612Z,100454.53